This is the latest recevied weather packets stored in our database for station/object IU2EVW-3. If no packets are shown the sender has not sent any weather packets the latest 10 day(s).
| Time | Temp. | Humidity | Pressure | Rain* | Wind** | Luminosity | Snow |
|---|---|---|---|---|---|---|---|
| 1777575596 | 16.11° C | 43% | 1024.4 hPa | - | - | - | - |
| 1777574394 | 16.11° C | 42% | 1024 hPa | - | - | - | - |
| 1777573193 | 16.67° C | 41% | 1023.8 hPa | - | - | - | - |
| 1777571992 | 17.78° C | 39% | 1023.4 hPa | - | - | - | - |
| 1777570791 | 19.44° C | 36% | 1023.2 hPa | - | - | - | - |
| 1777569590 | 20° C | 34% | 1023 hPa | - | - | - | - |
| 1777568389 | 19.44° C | 35% | 1023.1 hPa | - | - | - | - |
| 1777567187 | 19.44° C | 35% | 1023.1 hPa | - | - | - | - |
| 1777565986 | 18.33° C | 37% | 1023.1 hPa | - | - | - | - |
| 1777564785 | 18.33° C | 37% | 1023 hPa | - | - | - | - |
| 1777563584 | 18.33° C | 36% | 1023.1 hPa | - | - | - | - |
| 1777562382 | 17.78° C | 35% | 1023.1 hPa | - | - | - | - |
| 1777561181 | 17.78° C | 35% | 1023.2 hPa | - | - | - | - |
| 1777559980 | 17.78° C | 36% | 1023.4 hPa | - | - | - | - |
| 1777558779 | 17.22° C | 36% | 1023.7 hPa | - | - | - | - |
| 1777557578 | 17.22° C | 37% | 1024 hPa | - | - | - | - |
| 1777556376 | 17.22° C | 37% | 1024.2 hPa | - | - | - | - |
| 1777555175 | 17.78° C | 38% | 1024.3 hPa | - | - | - | - |
| 1777553974 | 16.67° C | 39% | 1024.6 hPa | - | - | - | - |
| 1777552773 | 17.78° C | 38% | 1024.6 hPa | - | - | - | - |
| 1777551572 | 16.67° C | 37% | 1024.7 hPa | - | - | - | - |
| 1777550370 | 17.22° C | 36% | 1025 hPa | - | - | - | - |
| 1777549169 | 17.22° C | 35% | 1025.1 hPa | - | - | - | - |
| 1777547968 | 16.11° C | 35% | 1025.3 hPa | - | - | - | - |
| 1777546767 | 16.67° C | 34% | 1025.3 hPa | - | - | - | - |
* Rain since midnight (hover to see other rain measurements)
** Current wind speed in m/s (hover to see current wind gust speed)